Últimos sismos

MagnitudMag. Fecha y hora Epicentro localización: latitud, longitud loc.: lat., long. ProfundidadProf.
3.6 2019-08-22    09:41:54 10 km al OESTE de SALINA CRUZ, OAX: 16.18°, -95.29° 51 km
3.7 2019-08-22    09:35:05 8 km al SURESTE de S BLAS ATEMPA, OAX: 16.28°, -95.16° 57 km
3.4 2019-08-22    08:50:37 40 km al SURESTE de H TLAXIACO, OAX: 16.96°, -97.49° 10 km
3.3 2019-08-22    08:36:07 10 km al NOROESTE de OMETEPEC, GRO: 16.77°, -98.45° 2 km
3.7 2019-08-22    08:27:22 48 km al NORTE de CRUCECITA, OAX: 16.19°, -96.03° 24 km
4.2 2019-08-22    08:02:37 38 km al NOROESTE de TECPAN, GRO: 17.49°, -100.85° 56 km
3.0 2019-08-22    08:01:08 7 km al SUR de PINOTEPA NACIONAL, OAX: 16.28°, -98.04° 10 km
3.2 2019-08-22    07:56:49 24 km al NORESTE de RIO GRANDE, OAX: 16.15°, -97.26° 30 km
3.7 2019-08-22    07:52:40 39 km al SUROESTE de TONALA, CHIS: 15.81°, -93.97° 90 km
3.8 2019-08-22    07:45:41 10 km al SURESTE de ARRIAGA , CHIS: 16.19°, -93.82° 117 km
4.1 2019-08-22    06:54:47 32 km al SUR de MIAHUATLAN, OAX: 16.04°, -96.55° 30 km
3.0 2019-08-22    06:22:57 27 km al OESTE de PINOTEPA NACIONAL, OAX: 16.40°, -98.30° 18 km
3.3 2019-08-22    06:21:47 9 km al SUROESTE de PINOTEPA NACIONAL, OAX: 16.26°, -98.08° 14 km
3.5 2019-08-22    06:18:38 19 km al SUR de RIO GRANDE, OAX: 15.84°, -97.42° 20 km
4.3 2019-08-22    06:05:34 15 km al SUR de RIO GRANDE, OAX: 15.88°, -97.42° 13 km
4.0 2019-08-22    05:28:59 9 km al SUROESTE de CD IXTEPEC, OAX: 16.49°, -95.13° 58 km
3.9 2019-08-22    05:14:44 81 km al SURESTE de SALINA CRUZ, OAX: 15.51°, -94.89° 14 km
3.3 2019-08-22    05:12:38 23 km al ESTE de PINOTEPA NACIONAL, OAX: 16.38°, -97.85° 10 km
3.6 2019-08-22    05:04:52 27 km al ESTE de MATIAS ROMERO, OAX: 16.89°, -94.79° 113 km
3.2 2019-08-22    04:35:00 12 km al SURESTE de RIO GRANDE, OAX: 15.92°, -97.36° 16 km
3.4 2019-08-22    04:23:17 8 km al SUR de GPE VICTORIA(KM.43), BC: 32.22°, -115.09° 18 km
3.6 2019-08-22    04:20:24 16 km al SURESTE de CASIMIRO CASTILLO, JAL: 19.53°, -104.31° 5 km
3.8 2019-08-22    04:06:31 137 km al SUROESTE de TONALA, CHIS: 14.98°, -94.33° 14 km
3.7 2019-08-22    03:26:24 133 km al SUROESTE de TONALA, CHIS: 15.11°, -94.48° 21 km
4.3 2019-08-22    03:21:17 49 km al SURESTE de SAYULA DE ALEMAN, VER: 17.46°, -94.81° 139 km
3.5 2019-08-22    03:12:08 31 km al SUR de SALINA CRUZ, OAX: 15.90°, -95.24° 45 km
3.2 2019-08-22    03:01:47 22 km al OESTE de RIO GRANDE, OAX: 16.04°, -97.64° 23 km
3.4 2019-08-22    02:13:35 20 km al SURESTE de UNION HIDALGO, OAX: 16.33°, -94.72° 13 km
3.6 2019-08-22    01:34:49 40 km al SUROESTE de PINOTEPA NACIONAL, OAX: 16.20°, -98.40° 2 km
3.3 2019-08-22    01:26:40 13 km al NORTE de PINOTEPA NACIONAL, OAX: 16.45°, -98.03° 27 km
3.6 2019-08-22    00:57:49 8 km al SURESTE de JUCHITAN DE ZARAGOZA, OAX: 16.38°, -94.96° 25 km
3.5 2019-08-22    00:55:24 9 km al SUROESTE de PINOTEPA NACIONAL, OAX: 16.26°, -98.09° 14 km
3.7 2019-08-22    00:54:22 34 km al NOROESTE de CINTALAPA, CHIS: 16.92°, -93.95° 149 km
3.9 2019-08-22    00:27:35 6 km al ESTE de S BLAS ATEMPA, OAX: 16.31°, -95.17° 57 km
3.2 2019-08-22    00:23:01 29 km al NOROESTE de OMETEPEC, GRO: 16.88°, -98.58° 15 km
3.5 2019-08-22    00:14:38 61 km al SURESTE de RODOLFO SANCHEZ T(MRO), BC: 31.57°, -115.96° 20 km
4.0 2019-08-22    00:07:34 9 km al NORESTE de SALINA CRUZ, OAX: 16.23°, -95.12° 57 km
3.9 2019-08-22    00:05:57 148 km al SUROESTE de MAPASTEPEC, CHIS: 14.50°, -93.87° 5 km
3.4 2019-08-21    23:41:22 67 km al ESTE de RODOLFO SANCHEZ T(MRO), BC: 31.73°, -115.86° 22 km
3.4 2019-08-21    23:25:41 27 km al NOROESTE de PUERTO ESCONDIDO, OAX: 16.08°, -97.18° 21 km
3.9 2019-08-21    22:38:18 122 km al SURESTE de SALINA CRUZ, OAX: 15.21°, -94.65° 18 km
3.8 2019-08-21    22:37:01 35 km al SUROESTE de OMETEPEC, GRO: 16.39°, -98.54° 3 km
3.6 2019-08-21    22:03:32 30 km al SURESTE de ACAPULCO, GRO: 16.72°, -99.67° 2 km
3.8 2019-08-21    22:01:43 29 km al SURESTE de MAPASTEPEC, CHIS: 15.23°, -92.73° 102 km
3.0 2019-08-21    21:54:45 23 km al SUR de OMETEPEC, GRO: 16.48°, -98.43° 25 km
3.2 2019-08-21    21:53:17 16 km al SUROESTE de ACAPULCO, GRO: 16.74°, -99.96° 12 km
4.0 2019-08-21    21:52:36 18 km al SURESTE de ACAPULCO, GRO: 16.78°, -99.76° 32 km
3.5 2019-08-21    21:46:07 18 km al NORTE de PETATLAN, GRO: 17.70°, -101.26° 55 km
3.6 2019-08-21    21:18:32 47 km al NORESTE de UNION HIDALGO, OAX: 16.80°, -94.54° 116 km
3.7 2019-08-21    21:14:56 63 km al SUR de SALINA CRUZ, OAX: 15.62°, -95.08° 47 km
3.2 2019-08-21    20:58:41 25 km al NORTE de PUERTO ESCONDIDO, OAX: 16.09°, -97.06° 19 km
3.6 2019-08-21    20:24:11 24 km al OESTE de PINOTEPA NACIONAL, OAX: 16.34°, -98.28° 11 km
3.4 2019-08-21    20:16:56 13 km al SURESTE de MANZANILLO, COL: 19.00°, -104.21° 10 km
3.8 2019-08-21    19:46:05 148 km al SUROESTE de TONALA, CHIS: 14.87°, -94.33° 17 km
3.6 2019-08-21    19:44:21 49 km al SURESTE de SAN MARCOS, GRO: 16.51°, -99.04° 5 km
3.5 2019-08-21    19:43:37 12 km al SUR de MANZANILLO, COL: 18.94°, -104.32° 29 km
4.0 2019-08-21    19:32:29 63 km al NORESTE de UNION HIDALGO, OAX: 16.78°, -94.33° 115 km
3.2 2019-08-21    19:32:29 35 km al NOROESTE de SAN MARCOS, GRO: 17.06°, -99.57° 34 km
3.3 2019-08-21    19:00:00 39 km al SUROESTE de RIO GRANDE, OAX: 15.83°, -97.75° 17 km
3.8 2019-08-21    18:43:18 176 km al SUROESTE de RIO GRANDE, OAX: 14.55°, -98.08° 12 km
3.4 2019-08-21    18:26:10 27 km al SUR de SAN MARCOS, GRO: 16.55°, -99.40° 5 km
3.2 2019-08-21    18:08:09 18 km al SUROESTE de CHILPANCINGO, GRO: 17.44°, -99.62° 13 km
3.9 2019-08-21    18:05:29 57 km al SURESTE de PARRAS DE LA FUENTE, COAH: 24.95°, -102.01° 5 km
3.7 2019-08-21    17:57:04 124 km al SUROESTE de TONALA, CHIS: 15.20°, -94.47° 16 km
3.8 2019-08-21    17:45:19 59 km al SUR de JALTIPAN DE MORELOS, VER: 17.43°, -94.65° 141 km
3.4 2019-08-21    17:29:31 13 km al NORESTE de CASIMIRO CASTILLO, JAL: 19.64°, -104.32° 10 km
3.2 2019-08-21    17:03:59 12 km al SURESTE de PINOTEPA NACIONAL, OAX: 16.24°, -98.01° 5 km
3.7 2019-08-21    15:26:35 13 km al ESTE de S BLAS ATEMPA, OAX: 16.31°, -95.11° 10 km
3.4 2019-08-21    15:10:15 27 km al SUR de ZIHUATANEJO, GRO: 17.40°, -101.56° 12 km
3.7 2019-08-21    14:32:55 68 km al NOROESTE de CINTALAPA, CHIS: 17.03°, -94.26° 138 km
2.1 2019-08-21    14:32:07 64 km al ESTE de RODOLFO SANCHEZ T(MRO), BC: 31.70°, -115.89° 10 km
3.5 2019-08-21    14:15:12 98 km al SURESTE de SALINA CRUZ, OAX: 15.39°, -94.79° 16 km
3.5 2019-08-21    14:07:46 44 km al SUROESTE de PINOTEPA NACIONAL, OAX: 16.10°, -98.39° 5 km
3.4 2019-08-21    13:57:29 21 km al SURESTE de RIO GRANDE, OAX: 15.93°, -97.26° 5 km
3.6 2019-08-21    13:36:21 91 km al SURESTE de SALINA CRUZ, OAX: 15.43°, -94.85° 14 km
4.0 2019-08-21    13:18:06 15 km al SUR de UNION HIDALGO, OAX: 16.34°, -94.85° 4 km
3.5 2019-08-21    13:13:14 7 km al OESTE de CASIMIRO CASTILLO, JAL: 19.62°, -104.50° 42 km
3.7 2019-08-21    12:44:16 33 km al NORESTE de MANZANILLO, COL: 19.34°, -104.22° 4 km
3.2 2019-08-21    12:42:43 16 km al NOROESTE de RIO GRANDE, OAX: 16.13°, -97.52° 16 km
3.4 2019-08-21    12:03:51 44 km al SUR de COALCOMAN, MICH: 18.38°, -103.16° 5 km
3.5 2019-08-21    11:54:14 30 km al SURESTE de TECOMAN, COL: 18.66°, -103.76° 10 km
3.3 2019-08-21    11:53:52 45 km al SUR de H TLAXIACO, OAX: 16.87°, -97.60° 17 km
3.4 2019-08-21    11:08:52 19 km al NOROESTE de RIO GRANDE, OAX: 16.06°, -97.60° 11 km
3.4 2019-08-21    10:44:55 23 km al OESTE de PINOTEPA NACIONAL, OAX: 16.33°, -98.27° 10 km
3.8 2019-08-21    10:27:55 54 km al SUR de SAN MARCOS, GRO: 16.31°, -99.34° 26 km
3.8 2019-08-21    10:16:45 57 km al SUR de CD HIDALGO, CHIS: 14.16°, -92.14° 46 km
3.2 2019-08-21    10:08:19 20 km al NORTE de CD DE ARMERIA, COL: 19.11°, -104.01° 17 km
3.6 2019-08-21    10:06:08 10 km al OESTE de PUERTO ESCONDIDO, OAX: 15.86°, -97.16° 5 km
3.0 2019-08-21    09:37:03 43 km al SUR de H TLAXIACO, OAX: 16.88°, -97.62° 15 km
3.2 2019-08-21    09:32:53 39 km al OESTE de RIO GRANDE, OAX: 16.03°, -97.80° 33 km
3.7 2019-08-21    09:17:19 9 km al SURESTE de SAN MARCOS, GRO: 16.72°, -99.36° 5 km
3.6 2019-08-21    09:15:50 21 km al OESTE de PINOTEPA NACIONAL, OAX: 16.37°, -98.25° 20 km
3.4 2019-08-21    09:11:41 23 km al NORESTE de PUERTO ESCONDIDO, OAX: 15.98°, -96.88° 26 km
3.3 2019-08-21    09:05:56 29 km al SUROESTE de ACATLAN DE OSORIO, PUE: 18.12°, -98.31° 50 km
3.2 2019-08-21    08:36:21 32 km al SUROESTE de OMETEPEC, GRO: 16.49°, -98.63° 14 km
3.3 2019-08-21    08:24:16 61 km al SUROESTE de TLAPA, GRO: 17.06°, -98.85° 45 km
3.4 2019-08-21    08:06:46 38 km al SURESTE de PINOTEPA NACIONAL, OAX: 16.07°, -97.84° 18 km
3.8 2019-08-21    07:38:01 12 km al NORESTE de COYUCA DE BENITEZ, GRO: 17.11°, -100.06° 33 km
3.8 2019-08-21    07:29:00 128 km al SUROESTE de LA MIRA, MICH: 17.58°, -103.45° 10 km
4.0 2019-08-21    06:35:34 149 km al SUROESTE de PIJIJIAPAN, CHIS: 14.78°, -94.24° 16 km
3.5 2019-08-21    06:25:09 12 km al OESTE de PUERTO ESCONDIDO, OAX: 15.88°, -97.18° 9 km
3.7 2019-08-21    06:22:37 119 km al SUROESTE de ADOLFO RUIZ CORTINES, SIN: 24.74°, -109.24° 17 km
3.3 2019-08-21    06:16:24 28 km al NORESTE de PUERTO ESCONDIDO, OAX: 16.03°, -96.87° 16 km
4.0 2019-08-21    05:35:47 112 km al SURESTE de SALINA CRUZ, OAX: 15.30°, -94.68° 17 km
3.4 2019-08-21    05:05:05 18 km al SUROESTE de PINOTEPA NACIONAL, OAX: 16.29°, -98.21° 14 km
3.7 2019-08-21    04:46:46 18 km al SURESTE de S PEDRO POCHUTLA, OAX: 15.60°, -96.38° 16 km
3.9 2019-08-21    04:08:05 44 km al OESTE de PIJIJIAPAN, CHIS: 15.66°, -93.62° 92 km
3.7 2019-08-21    03:37:36 51 km al SUROESTE de PINOTEPA NACIONAL, OAX: 16.01°, -98.38° 16 km
3.9 2019-08-21    02:42:31 42 km al NORESTE de UNION HIDALGO, OAX: 16.80°, -94.63° 110 km
3.6 2019-08-21    02:36:22 36 km al SUR de TELOLOAPAN, GRO: 18.05°, -99.80° 57 km
3.3 2019-08-21    02:32:42 26 km al SUR de OMETEPEC, GRO: 16.45°, -98.43° 7 km
3.3 2019-08-21    02:20:12 21 km al OESTE de RIO GRANDE, OAX: 16.02°, -97.63° 36 km
3.1 2019-08-21    02:12:25 12 km al SURESTE de PINOTEPA NACIONAL, OAX: 16.26°, -97.99° 4 km
3.8 2019-08-21    00:55:11 4 km al SUROESTE de PIJIJIAPAN, CHIS: 15.66°, -93.24° 106 km
3.3 2019-08-21    00:40:09 35 km al SUROESTE de RIO GRANDE, OAX: 15.82°, -97.70° 18 km
3.0 2019-08-21    00:29:38 20 km al SURESTE de PINOTEPA NACIONAL, OAX: 16.25°, -97.89° 15 km

Sismo de magnitud menor de 4.0

Sismo de magnitud entre 4.0 y 5.9

Sismo de magnitud igual o mayor de 6.0

Si deseas más información,
consulta nuestro

Catálogo de sismos